Hovedside
METAR-TAF:

METAR-TAF

Lufthavner :

Loja, Ecuador

breddegrad: 03-59-45S, lengdegrad: 079-22-19W, høyde over havet: 1236 m

Gjeldene værobservasjon

Denne rapporten ble laget for 55 minutter siden, klokken 15:00 UTC
Vind 1 kt fra Øst-sørøst
Temperatur 23°C
Luftfuktighet 73%
Trykk 1019 hPa
Sikt 10 km eller mer
Spredte skyer i en høyde av 4000 ft
Brutte skyer i en høyde av 10000 ft

METAR: SECA 041500Z 11001KT 9999 SCT040 BKN100 23/18 Q1019 RMK A3012

Tid: 10:55 (15:55 UTC)


TAF: fraværende

Værobservasjoner og værvarsel for over 4000 flyplasser (METAR- og TAF-rapporter).

Tilgjengelige stasjoner er representert av de røde og gule prikkene på kartet.

Hold musepekeren over prikken for å se navnet på stasjonen.

Klikk så for å se værobservasjoner og -varsler.

For å forandre kartet kan du klikke på den grønne knappen med svart kryss for å zoome inn, på den grønne knappen med strek for å zoome ut, eller på de grønne pilene for å se tilstøtende kart.


METAR-TAF: